Time;durP1;ratioP1;P1;durP2;ratioP2;P2;SDS_P1;SDS_P2;PMS_P1;PMS_P2;Temp;Humidity;BMP_temperature;BMP_pressure;BME280_temperature;BME280_humidity;BME280_pressure;Samples;Min_cycle;Max_cycle;Signal;HPM_P1;HPM_P2
2022/10/18 00:01:13;;;;;;;10.40;5.93;;;;;;;18.10;100.00;97275.56;4964435;28;20086;-45
2022/10/18 00:03:42;;;;;;;8.30;5.68;;;;;;;17.42;100.00;97280.34;4963175;28;20081;-45
2022/10/18 00:06:16;;;;;;;9.43;5.60;;;;;;;17.99;100.00;97285.59;4967171;28;20086;-46
2022/10/18 00:08:45;;;;;;;9.27;5.30;;;;;;;17.53;100.00;97284.50;4967849;28;20078;-49
2022/10/18 00:11:14;;;;;;;10.52;4.95;;;;;;;17.80;100.00;97283.31;4965675;28;20090;-47
2022/10/18 00:13:43;;;;;;;9.70;4.90;;;;;;;17.86;100.00;97279.13;4966579;28;20530;-47
2022/10/18 00:16:13;;;;;;;9.68;4.47;;;;;;;17.95;100.00;97280.78;4957192;28;20078;-52
2022/10/18 00:18:42;;;;;;;9.00;4.93;;;;;;;17.46;100.00;97279.00;4966741;28;20085;-45
2022/10/18 00:21:14;;;;;;;9.07;4.75;;;;;;;17.92;100.00;97273.09;4966264;28;20078;-48
2022/10/18 00:23:43;;;;;;;8.35;4.65;;;;;;;17.84;100.00;97268.63;4969358;28;20123;-46
2022/10/18 00:26:13;;;;;;;8.45;4.97;;;;;;;17.38;100.00;97270.16;4967311;28;20095;-44
2022/10/18 00:28:43;;;;;;;9.50;5.13;;;;;;;17.00;100.00;97275.16;4970496;28;20085;-49
2022/10/18 00:31:13;;;;;;;12.82;5.22;;;;;;;17.17;100.00;97273.31;4970273;28;20089;-47
2022/10/18 00:33:42;;;;;;;11.07;5.07;;;;;;;17.38;100.00;97265.69;4965325;28;20522;-53
2022/10/18 00:36:11;;;;;;;13.00;5.50;;;;;;;17.51;100.00;97273.13;4966902;28;20078;-51
2022/10/18 00:38:40;;;;;;;11.30;5.45;;;;;;;17.58;100.00;97274.13;4969404;28;20078;-53
2022/10/18 00:41:10;;;;;;;8.88;5.28;;;;;;;17.69;100.00;97265.81;4968976;28;20093;-48
2022/10/18 00:43:58;;;;;;;9.48;5.57;;;;;;;17.71;100.00;97260.28;4967657;28;20109;-46
2022/10/18 00:46:28;;;;;;;10.45;6.00;;;;;;;17.81;100.00;97268.97;4968497;28;20548;-47
2022/10/18 00:49:13;;;;;;;10.57;5.57;;;;;;;17.86;100.00;97258.63;4970649;28;20066;-53
2022/10/18 00:51:44;;;;;;;9.27;4.82;;;;;;;17.50;100.00;97269.66;4969599;28;20086;-46
2022/10/18 00:54:12;;;;;;;;;;;;;;;17.62;100.00;97264.81;4968704;28;20074;-52
2022/10/18 00:56:40;;;;;;;9.07;4.20;;;;;;;17.54;100.00;97267.47;4970974;28;19960;-49
2022/10/18 00:59:10;;;;;;;9.15;4.50;;;;;;;17.53;100.00;97269.31;4969382;28;20462;-46
2022/10/18 01:01:38;;;;;;;6.10;4.10;;;;;;;17.41;100.00;97264.47;4965229;28;20560;-48
2022/10/18 01:04:06;;;;;;;9.10;4.78;;;;;;;17.46;100.00;97263.00;4968965;28;20097;-48
2022/10/18 01:06:40;;;;;;;12.70;5.43;;;;;;;17.57;100.00;97261.81;4964062;28;20513;-48
2022/10/18 01:09:15;;;;;;;10.88;4.78;;;;;;;16.92;100.00;97265.31;4969288;28;20119;-48
2022/10/18 01:11:58;;;;;;;10.02;5.50;;;;;;;17.48;100.00;97265.47;4969053;28;20344;-46
2022/10/18 01:14:35;;;;;;;8.90;5.28;;;;;;;17.61;100.00;97256.97;4970089;28;20082;-45
2022/10/18 01:17:27;;;;;;;14.48;5.40;;;;;;;17.55;100.00;97258.50;4969260;28;20529;-46
2022/10/18 01:20:41;;;;;;;10.63;5.68;;;;;;;17.21;100.00;97253.34;4968078;28;20101;-51
2022/10/18 01:23:14;;;;;;;10.57;5.75;;;;;;;17.43;100.00;97244.66;4932692;28;20211;-48
2022/10/18 01:25:50;;;;;;;8.82;5.25;;;;;;;17.41;100.00;97244.00;4965675;28;20090;-51
2022/10/18 01:28:34;;;;;;;7.72;5.28;;;;;;;17.42;100.00;97250.16;4969306;28;20458;-50
2022/10/18 01:31:05;;;;;;;9.88;6.25;;;;;;;17.33;100.00;97260.00;4967436;28;20521;-51
2022/10/18 01:33:38;;;;;;;12.55;6.10;;;;;;;17.25;100.00;97258.16;4968680;28;20165;-45
2022/10/18 01:36:10;;;;;;;15.95;5.72;;;;;;;17.08;100.00;97260.00;4966078;28;20090;-51
2022/10/18 01:38:39;;;;;;;8.32;6.10;;;;;;;17.17;100.00;97249.31;4963661;28;20604;-46
2022/10/18 01:41:09;;;;;;;9.45;5.57;;;;;;;17.03;100.00;97261.47;4967999;28;20081;-47
2022/10/18 01:43:44;;;;;;;10.80;5.78;;;;;;;17.43;100.00;97259.81;4965805;28;20066;-50
2022/10/18 01:46:15;;;;;;;10.40;5.93;;;;;;;17.37;100.00;97263.16;4968953;28;20121;-48
2022/10/18 01:48:44;;;;;;;8.82;5.40;;;;;;;17.36;100.00;97261.50;4966635;28;20471;-45
2022/10/18 01:51:12;;;;;;;9.80;4.38;;;;;;;16.70;100.00;97273.91;4967985;28;20078;-48
2022/10/18 01:53:40;;;;;;;12.02;5.70;;;;;;;16.99;100.00;97263.66;4962875;28;20085;-49
2022/10/18 01:56:18;;;;;;;8.48;4.78;;;;;;;17.12;100.00;97263.16;4967507;28;20488;-47
2022/10/18 01:59:02;;;;;;;9.13;5.10;;;;;;;17.09;100.00;97266.16;4965592;28;20093;-44
2022/10/18 02:01:39;;;;;;;8.88;5.00;;;;;;;17.14;100.00;97271.84;4968984;28;20082;-45
2022/10/18 02:04:14;;;;;;;7.90;4.40;;;;;;;17.04;100.00;97266.66;4966856;28;20744;-48
2022/10/18 02:06:43;;;;;;;7.05;4.90;;;;;;;16.92;100.00;97273.28;4965237;28;20086;-46
2022/10/18 02:09:16;;;;;;;7.15;5.05;;;;;;;17.03;100.00;97270.34;4963821;28;20094;-48
2022/10/18 02:11:46;;;;;;;6.15;4.43;;;;;;;17.00;100.00;97260.00;4964435;28;20038;-45
2022/10/18 02:14:33;;;;;;;8.85;5.25;;;;;;;16.97;100.00;97263.00;4967649;28;21610;-49
2022/10/18 02:17:06;;;;;;;9.95;4.90;;;;;;;16.19;100.00;97267.75;4965801;28;20086;-45
2022/10/18 02:19:37;;;;;;;11.82;4.50;;;;;;;16.37;100.00;97265.81;4966917;28;20085;-50
2022/10/18 02:22:07;;;;;;;8.90;4.38;;;;;;;16.44;100.00;97269.47;4962630;28;20501;-48
2022/10/18 02:24:43;;;;;;;6.90;4.53;;;;;;;16.27;100.00;97276.56;4968416;28;20046;-46
2022/10/18 02:27:11;;;;;;;8.15;4.60;;;;;;;15.92;100.00;97277.56;4963843;28;20082;-45
2022/10/18 02:29:40;;;;;;;9.98;4.45;;;;;;;15.92;100.00;97271.44;4965199;28;20121;-47
2022/10/18 02:32:14;;;;;;;7.38;4.65;;;;;;;16.34;100.00;97269.66;4965065;28;20075;-45
2022/10/18 02:34:45;;;;;;;6.85;4.72;;;;;;;16.59;100.00;97265.22;4965821;28;20078;-45
2022/10/18 02:37:14;;;;;;;7.25;4.70;;;;;;;16.23;100.00;97264.59;4961468;28;20722;-49
2022/10/18 02:39:45;;;;;;;6.32;4.22;;;;;;;16.41;100.00;97263.66;4966521;28;20074;-44
2022/10/18 02:42:14;;;;;;;9.88;4.90;;;;;;;16.45;100.00;97260.53;4965568;28;20078;-50
2022/10/18 02:44:43;;;;;;;7.10;4.20;;;;;;;16.38;100.00;97262.16;4965210;28;20077;-48
2022/10/18 02:47:13;;;;;;;11.40;4.97;;;;;;;16.72;100.00;97272.72;4965720;28;20541;-46
2022/10/18 02:49:41;;;;;;;14.98;5.05;;;;;;;16.74;100.00;97267.25;4964784;28;20074;-48
2022/10/18 02:52:09;;;;;;;10.25;4.85;;;;;;;16.61;100.00;97262.38;4963012;28;20158;-50
2022/10/18 02:54:37;;;;;;;9.50;5.28;;;;;;;16.74;100.00;97267.25;4965452;28;20544;-48
2022/10/18 02:57:06;;;;;;;7.45;4.53;;;;;;;16.81;100.00;97258.47;4965667;28;20089;-48
2022/10/18 02:59:34;;;;;;;5.10;4.30;;;;;;;16.45;100.00;97259.66;4966654;28;20705;-47
2022/10/18 03:02:02;;;;;;;6.28;4.35;;;;;;;16.55;100.00;97266.56;4964487;28;20074;-48
2022/10/18 03:04:32;;;;;;;11.68;4.93;;;;;;;16.60;100.00;97264.22;4963333;28;20087;-47
2022/10/18 03:07:00;;;;;;;22.73;4.75;;;;;;;15.76;100.00;97280.13;4965194;28;20090;-47
2022/10/18 03:09:28;;;;;;;85.13;6.55;;;;;;;15.25;100.00;97284.41;4963415;28;20532;-47
2022/10/18 03:11:57;;;;;;;7.05;4.18;;;;;;;15.73;100.00;97278.66;4964723;28;20086;-43
2022/10/18 03:14:25;;;;;;;6.50;4.32;;;;;;;15.95;100.00;97269.28;4964065;28;20625;-51
2022/10/18 03:16:53;;;;;;;7.50;4.40;;;;;;;15.69;100.00;97269.31;4966326;28;20083;-51
2022/10/18 03:19:22;;;;;;;7.78;4.70;;;;;;;15.62;100.00;97271.72;4961663;28;20589;-52
2022/10/18 03:21:51;;;;;;;6.78;4.55;;;;;;;15.32;100.00;97273.00;4967472;28;20082;-50
2022/10/18 03:24:20;;;;;;;7.20;5.03;;;;;;;15.67;100.00;97265.97;4966035;28;20081;-48
2022/10/18 03:26:48;;;;;;;8.43;4.90;;;;;;;15.85;100.00;97274.72;4969048;28;20081;-48
2022/10/18 03:29:16;;;;;;;8.80;4.88;;;;;;;15.91;100.00;97270.59;4968355;28;20082;-52
2022/10/18 03:31:44;;;;;;;7.15;4.93;;;;;;;15.93;100.00;97268.59;4962054;28;20459;-48
2022/10/18 03:34:14;;;;;;;8.15;5.05;;;;;;;15.63;100.00;97276.06;4961835;28;20078;-48
2022/10/18 03:36:42;;;;;;;8.03;4.87;;;;;;;15.98;100.00;97276.94;4967989;28;20078;-46
2022/10/18 03:39:12;;;;;;;10.75;4.82;;;;;;;16.12;100.00;97279.00;4964368;28;20594;-45
2022/10/18 03:41:40;;;;;;;8.07;5.00;;;;;;;15.97;100.00;97283.28;4965087;28;20538;-46
2022/10/18 03:44:09;;;;;;;8.55;5.25;;;;;;;15.41;100.00;97288.00;4967256;28;20074;-45
2022/10/18 03:46:37;;;;;;;7.68;4.82;;;;;;;15.72;100.00;97281.44;4966452;28;20509;-47
2022/10/18 03:49:05;;;;;;;7.82;5.20;;;;;;;15.72;100.00;97279.63;4967369;28;20086;-54
2022/10/18 03:51:33;;;;;;;7.55;5.07;;;;;;;15.85;100.00;97280.03;4965029;28;20134;-52
2022/10/18 03:54:02;;;;;;;10.80;5.38;;;;;;;15.70;100.00;97278.94;4963816;28;20086;-52
2022/10/18 03:56:31;;;;;;;11.13;5.15;;;;;;;15.70;100.00;97276.28;4962556;28;20090;-48
2022/10/18 03:59:00;;;;;;;8.97;5.30;;;;;;;15.86;100.00;97276.41;4962799;28;20071;-45
2022/10/18 04:01:28;;;;;;;7.30;5.18;;;;;;;15.95;100.00;97284.41;4965813;28;20078;-51
2022/10/18 04:03:56;;;;;;;9.02;5.32;;;;;;;15.93;100.00;97283.72;4962795;28;20465;-48
2022/10/18 04:06:24;;;;;;;16.00;10.35;;;;;;;15.95;100.00;97279.09;4963438;28;20093;-45
2022/10/18 04:08:54;;;;;;;8.90;5.18;;;;;;;15.29;100.00;97291.91;4970290;28;20477;-45
2022/10/18 04:11:22;;;;;;;8.07;5.80;;;;;;;15.77;100.00;97293.28;4970187;28;20083;-50
2022/10/18 04:13:52;;;;;;;7.40;5.03;;;;;;;15.85;100.00;97287.19;4970219;28;20097;-49
2022/10/18 04:16:20;;;;;;;9.77;5.40;;;;;;;15.92;100.00;97282.91;4968983;28;20078;-48
2022/10/18 04:18:48;;;;;;;7.00;4.72;;;;;;;16.06;100.00;97278.81;4967072;28;20089;-44
2022/10/18 04:21:17;;;;;;;8.98;5.55;;;;;;;15.70;100.00;97289.59;4970234;28;20688;-46
2022/10/18 04:23:47;;;;;;;9.15;6.07;;;;;;;15.98;100.00;97284.94;4969925;28;20081;-50
2022/10/18 04:26:15;;;;;;;9.73;5.82;;;;;;;16.02;100.00;97285.44;4970517;28;20632;-44
2022/10/18 04:28:44;;;;;;;9.18;5.45;;;;;;;16.07;100.00;97296.44;4966792;28;20082;-47
2022/10/18 04:31:13;;;;;;;9.43;6.13;;;;;;;16.20;100.00;97296.00;4969692;28;20556;-46
2022/10/18 04:33:42;;;;;;;8.63;5.82;;;;;;;16.11;100.00;97306.63;4970006;28;20081;-50
2022/10/18 04:36:10;;;;;;;8.07;5.50;;;;;;;16.26;100.00;97303.38;4969935;28;20728;-52
2022/10/18 04:38:38;;;;;;;9.98;5.70;;;;;;;16.29;100.00;97292.41;4970195;28;20077;-48
2022/10/18 04:41:07;;;;;;;13.70;5.80;;;;;;;16.31;100.00;97291.25;4970219;28;20098;-46
2022/10/18 04:43:35;;;;;;;12.65;6.10;;;;;;;16.14;100.00;97292.19;4967201;28;20071;-46
2022/10/18 04:46:03;;;;;;;7.78;5.32;;;;;;;15.51;100.00;97292.41;4970009;28;20089;-45
2022/10/18 04:48:33;;;;;;;11.07;5.90;;;;;;;15.03;100.00;97289.19;4970230;28;20097;-46
2022/10/18 04:51:01;;;;;;;10.30;5.90;;;;;;;14.71;100.00;97292.38;4964349;28;20082;-45
2022/10/18 04:53:30;;;;;;;8.88;5.75;;;;;;;15.21;100.00;97294.50;4983683;28;20510;-46
2022/10/18 04:55:58;;;;;;;10.30;5.78;;;;;;;15.61;100.00;97296.63;4970176;28;20078;-44
2022/10/18 04:58:26;;;;;;;9.55;6.00;;;;;;;15.79;100.00;97290.47;4967475;28;20074;-48
2022/10/18 05:00:54;;;;;;;11.82;5.85;;;;;;;15.95;100.00;97287.06;4965195;28;20081;-49
2022/10/18 05:03:23;;;;;;;9.93;5.72;;;;;;;15.95;100.00;97282.59;4969190;28;20082;-48
2022/10/18 05:05:54;;;;;;;9.77;6.17;;;;;;;16.01;100.00;97271.31;4963456;28;20528;-47
2022/10/18 05:08:31;;;;;;;11.70;6.38;;;;;;;14.98;100.00;97277.38;4970933;28;21291;-45
2022/10/18 05:11:00;;;;;;;14.35;6.60;;;;;;;14.82;100.00;97273.53;4971883;28;20092;-44
2022/10/18 05:13:28;;;;;;;9.40;6.20;;;;;;;15.71;100.00;97271.81;4971178;28;20066;-51
2022/10/18 05:15:58;;;;;;;10.95;5.85;;;;;;;15.94;100.00;97270.28;4988182;28;20121;-43
2022/10/18 05:18:26;;;;;;;10.60;6.20;;;;;;;16.18;100.00;97269.56;4973272;28;20085;-45
2022/10/18 05:20:56;;;;;;;12.23;6.32;;;;;;;15.72;100.00;97255.69;4973263;28;20158;-50
2022/10/18 05:23:25;;;;;;;8.38;6.00;;;;;;;16.23;100.00;97261.09;4973364;28;20446;-49
2022/10/18 05:25:54;;;;;;;8.38;5.57;;;;;;;16.17;100.00;97265.22;4972118;28;20411;-46
2022/10/18 05:28:23;;;;;;;10.90;5.68;;;;;;;15.55;100.00;97283.94;4973116;28;20105;-49
2022/10/18 05:31:10;;;;;;;7.75;5.03;;;;;;;15.31;100.00;97283.78;4969297;28;20089;-46
2022/10/18 05:33:38;;;;;;;8.15;5.10;;;;;;;16.11;100.00;97284.50;4968963;28;20074;-50
2022/10/18 05:36:09;;;;;;;9.38;4.93;;;;;;;16.25;100.00;97270.59;4973289;28;20169;-46
2022/10/18 05:38:40;;;;;;;10.88;5.70;;;;;;;16.45;100.00;97270.31;4971988;28;20081;-45
2022/10/18 05:41:09;;;;;;;8.93;5.57;;;;;;;16.16;100.00;97257.41;4967676;28;20085;-46
2022/10/18 05:43:38;;;;;;;7.82;6.00;;;;;;;16.23;100.00;97263.75;4987751;28;20082;-50
2022/10/18 05:46:07;;;;;;;8.75;5.57;;;;;;;16.26;100.00;97269.59;4970858;28;20113;-52
2022/10/18 05:48:43;;;;;;;12.07;5.57;;;;;;;16.30;100.00;97256.78;4969315;28;20083;-50
2022/10/18 05:51:13;;;;;;;10.65;5.50;;;;;;;16.69;100.00;97262.41;4967249;28;20090;-45
2022/10/18 05:53:41;;;;;;;8.63;5.70;;;;;;;17.03;100.00;97272.13;4967286;28;20097;-49
2022/10/18 05:56:10;;;;;;;9.65;5.88;;;;;;;16.41;100.00;97276.97;4973079;28;20109;-45
2022/10/18 05:58:39;;;;;;;7.32;5.00;;;;;;;16.10;100.00;97283.69;4972784;28;20090;-49
2022/10/18 06:01:08;;;;;;;9.23;5.20;;;;;;;17.04;100.00;97274.66;4968242;28;20094;-51
2022/10/18 06:03:36;;;;;;;13.30;4.80;;;;;;;16.86;100.00;97287.25;4971494;28;20520;-47
2022/10/18 06:06:06;;;;;;;7.05;5.00;;;;;;;17.14;100.00;97295.00;4972392;28;20471;-48
2022/10/18 06:08:37;;;;;;;9.40;5.47;;;;;;;17.43;100.00;97292.66;4972526;28;20101;-44
2022/10/18 06:11:06;;;;;;;9.05;5.28;;;;;;;17.36;100.00;97294.31;4972607;28;20090;-46
2022/10/18 06:13:35;;;;;;;10.20;5.05;;;;;;;17.36;100.00;97294.31;4972157;28;20078;-51
2022/10/18 06:16:03;;;;;;;10.45;5.28;;;;;;;17.43;100.00;97299.81;4971361;28;20093;-49
2022/10/18 06:18:31;;;;;;;10.13;5.50;;;;;;;17.72;100.00;97297.47;4972365;28;20086;-48
2022/10/18 06:21:00;;;;;;;8.73;5.03;;;;;;;18.17;100.00;97289.88;4969159;28;20121;-46
2022/10/18 06:23:28;;;;;;;7.18;4.88;;;;;;;18.24;100.00;97281.03;4967140;28;20078;-45
2022/10/18 06:26:00;;;;;;;10.18;5.05;;;;;;;18.70;100.00;97283.81;4970093;28;20086;-50
2022/10/18 06:28:29;;;;;;;8.90;4.93;;;;;;;18.62;100.00;97286.53;4972016;28;20070;-49
2022/10/18 06:30:58;;;;;;;9.45;4.85;;;;;;;18.48;100.00;97282.78;4968548;28;20078;-46
2022/10/18 06:33:26;;;;;;;7.53;4.80;;;;;;;18.53;100.00;97282.25;4972422;28;20462;-47
2022/10/18 06:35:56;;;;;;;7.55;5.05;;;;;;;18.41;100.00;97283.63;4969150;28;20518;-50
2022/10/18 06:38:24;;;;;;;11.47;5.33;;;;;;;19.02;100.00;97284.66;4972610;28;20513;-47
2022/10/18 06:40:53;;;;;;;10.13;4.75;;;;;;;19.02;100.00;97281.97;4971777;28;20504;-50
2022/10/18 06:43:23;;;;;;;6.32;5.03;;;;;;;18.95;100.00;97287.19;4968231;28;20082;-47
2022/10/18 06:45:52;;;;;;;9.35;4.80;;;;;;;19.11;100.00;97286.28;4962980;28;20723;-51
2022/10/18 06:48:21;;;;;;;9.75;5.57;;;;;;;19.34;100.00;97296.13;4969904;28;20097;-48
2022/10/18 06:50:55;;;;;;;9.68;5.55;;;;;;;19.55;100.00;97287.44;4970225;28;20070;-46
2022/10/18 06:53:24;;;;;;;9.07;5.47;;;;;;;19.30;100.00;97294.81;4971870;28;20074;-47
2022/10/18 06:55:52;;;;;;;9.10;5.10;;;;;;;18.82;100.00;97300.31;4971531;28;20089;-51
2022/10/18 06:58:22;;;;;;;9.93;4.45;;;;;;;19.38;100.00;97294.78;4970186;28;20078;-51
2022/10/18 07:00:50;;;;;;;10.50;4.60;;;;;;;19.53;100.00;97303.66;4971420;28;20474;-52
2022/10/18 07:03:20;;;;;;;6.75;4.32;;;;;;;19.38;100.00;97311.66;4969858;28;20452;-46
2022/10/18 07:05:48;;;;;;;7.97;4.40;;;;;;;18.71;100.00;97320.25;4967655;28;20078;-50
2022/10/18 07:08:17;;;;;;;6.38;4.22;;;;;;;19.32;100.00;97312.34;4970394;28;20081;-45
2022/10/18 07:10:51;;;;;;;5.65;4.15;;;;;;;19.58;100.00;97306.63;4971203;28;20074;-45
2022/10/18 07:13:21;;;;;;;8.32;3.90;;;;;;;19.47;100.00;97307.03;4970966;28;20101;-43
2022/10/18 07:16:09;;;;;;;8.13;4.65;;;;;;;19.23;100.00;97320.59;4967303;28;20074;-51
2022/10/18 07:18:46;;;;;;;8.00;4.18;;;;;;;18.49;100.00;97335.19;4964664;28;20082;-47
2022/10/18 07:21:15;;;;;;;10.35;4.60;;;;;;;18.61;100.00;97338.28;4970501;28;20085;-50
2022/10/18 07:23:45;;;;;;;9.87;4.10;;;;;;;19.04;100.00;97330.78;4971067;28;20062;-44
2022/10/18 07:26:14;;;;;;;10.93;5.03;;;;;;;18.75;100.00;97331.41;4971049;28;20090;-44
2022/10/18 07:28:46;;;;;;;8.32;4.53;;;;;;;19.54;100.00;97336.59;4970680;28;20101;-45
2022/10/18 07:31:15;;;;;;;9.02;4.47;;;;;;;19.75;100.00;97335.94;4970235;28;20094;-46
2022/10/18 07:33:43;;;;;;;6.78;4.35;;;;;;;19.48;100.00;97334.63;4970473;28;20082;-47
2022/10/18 07:36:13;;;;;;;7.05;4.57;;;;;;;20.17;100.00;97335.38;4970573;28;20457;-46
2022/10/18 07:38:47;;;;;;;7.60;4.72;;;;;;;19.50;100.00;97336.13;4967590;28;20086;-51
2022/10/18 07:41:16;;;;;;;8.50;4.38;;;;;;;20.40;100.00;97327.25;4963476;28;20615;-47
2022/10/18 07:43:47;;;;;;;11.35;4.47;;;;;;;20.72;100.00;97325.25;4968829;28;20533;-47
2022/10/18 07:46:17;;;;;;;10.95;4.43;;;;;;;20.83;100.00;97330.13;4967900;28;20544;-46
2022/10/18 07:48:45;;;;;;;7.25;4.40;;;;;;;20.52;100.00;97341.06;4970243;28;20442;-49
2022/10/18 07:51:14;;;;;;;10.60;4.60;;;;;;;20.45;100.00;97340.94;4970347;28;20067;-49
2022/10/18 07:53:42;;;;;;;7.03;4.25;;;;;;;20.94;100.00;97326.09;4970241;28;20070;-46
2022/10/18 07:56:15;;;;;;;11.80;4.68;;;;;;;20.96;100.00;97324.91;4970443;28;20124;-46
2022/10/18 07:58:46;;;;;;;9.43;4.68;;;;;;;20.89;100.00;97326.69;4964780;28;20088;-50
2022/10/18 08:01:14;;;;;;;;;;;;;;;21.22;100.00;97329.72;4969916;28;20081;-48
2022/10/18 08:03:43;;;;;;;7.03;4.32;;;;;;;21.37;100.00;97326.16;4971024;28;19953;-49
2022/10/18 08:06:13;;;;;;;11.20;4.50;;;;;;;21.51;100.00;97323.44;4970267;28;20081;-44
2022/10/18 08:08:42;;;;;;;6.90;4.72;;;;;;;21.55;100.00;97326.56;4968907;28;20077;-45
2022/10/18 08:11:12;;;;;;;8.52;4.15;;;;;;;21.69;100.00;97320.28;4969389;28;20113;-45
2022/10/18 08:13:40;;;;;;;9.27;4.80;;;;;;;21.70;100.00;97313.06;4966918;28;20802;-45
2022/10/18 08:16:11;;;;;;;11.75;4.78;;;;;;;21.78;100.00;97307.53;4970088;28;20093;-49
2022/10/18 08:18:40;;;;;;;7.50;4.43;;;;;;;21.47;100.00;97310.56;4970038;28;20505;-46
2022/10/18 08:21:10;;;;;;;8.52;4.65;;;;;;;21.68;100.00;97320.47;4970352;28;20066;-46
2022/10/18 08:23:40;;;;;;;6.75;4.20;;;;;;;21.68;100.00;97324.00;4969682;28;20078;-49
2022/10/18 08:26:10;;;;;;;;;;;;;;;21.51;100.00;97320.75;4971015;28;20082;-47
2022/10/18 08:28:38;;;;;;;11.13;5.15;;;;;;;21.18;100.00;97324.94;4969744;28;19965;-48
2022/10/18 08:31:12;;;;;;;9.02;5.45;;;;;;;22.19;100.00;97313.03;4961557;28;20473;-48
2022/10/18 08:33:40;;;;;;;10.32;4.90;;;;;;;21.58;100.00;97336.94;4967817;28;20544;-49
2022/10/18 08:36:11;;;;;;;8.90;4.90;;;;;;;21.30;100.00;97351.06;4965897;28;20081;-49
2022/10/18 08:38:41;;;;;;;10.63;4.90;;;;;;;20.76;100.00;97345.28;4963376;28;20094;-50
2022/10/18 08:41:23;;;;;;;13.10;4.90;;;;;;;21.01;100.00;97343.09;4968594;28;20485;-48
2022/10/18 08:43:56;;;;;;;7.93;4.97;;;;;;;21.69;100.00;97332.88;4972201;28;20084;-45
2022/10/18 08:46:27;;;;;;;7.53;4.93;;;;;;;22.28;100.00;97324.47;4973447;28;20086;-45
2022/10/18 08:48:56;;;;;;;8.35;4.97;;;;;;;22.40;100.00;97312.16;4973899;28;20090;-54
2022/10/18 08:51:29;;;;;;;8.88;5.20;;;;;;;23.06;100.00;97302.72;4973859;28;20093;-47
2022/10/18 08:54:02;;;;;;;9.65;4.97;;;;;;;22.83;100.00;97303.03;4972822;28;20182;-45
2022/10/18 08:56:32;;;;;;;8.25;4.40;;;;;;;22.84;100.00;97312.75;4971789;28;20125;-43
2022/10/18 08:59:02;;;;;;;7.05;4.57;;;;;;;23.07;100.00;97315.13;4973136;28;20066;-50
2022/10/18 09:01:39;;;;;;;9.52;4.72;;;;;;;23.31;100.00;97311.88;4972789;28;20086;-51
2022/10/18 09:04:21;;;;;;;10.40;4.60;;;;;;;23.03;100.00;97312.03;4970577;28;20111;-45
2022/10/18 09:06:59;;;;;;;8.88;4.57;;;;;;;23.77;100.00;97313.81;4969137;28;20085;-49
2022/10/18 09:09:36;;;;;;;8.27;4.97;;;;;;;24.04;100.00;97305.72;4967909;28;20473;-50
2022/10/18 09:12:26;;;;;;;6.95;4.63;;;;;;;23.46;100.00;97312.50;4969045;28;20071;-45
2022/10/18 09:15:13;;;;;;;8.00;4.55;;;;;;;23.71;100.00;97311.97;4971836;28;20113;-48
2022/10/18 09:17:50;;;;;;;7.10;4.57;;;;;;;23.83;100.00;97304.91;4972860;28;20075;-47
2022/10/18 09:20:23;;;;;;;11.65;4.22;;;;;;;24.18;100.00;97304.66;4971230;28;20097;-48
2022/10/18 09:22:56;;;;;;;6.63;4.05;;;;;;;23.80;100.00;97305.31;4972228;28;20078;-46
2022/10/18 09:25:26;;;;;;;7.55;4.63;;;;;;;23.86;100.00;97309.88;4967960;28;20074;-48
2022/10/18 09:27:56;;;;;;;7.45;4.68;;;;;;;23.35;100.00;97305.03;4973171;28;20082;-47
2022/10/18 09:30:44;;;;;;;10.57;5.10;;;;;;;23.12;100.00;97318.03;4973042;28;20074;-49
2022/10/18 09:33:26;;;;;;;6.55;4.40;;;;;;;22.86;100.00;97318.75;4966606;28;20082;-44
2022/10/18 09:35:57;;;;;;;11.25;5.25;;;;;;;23.36;100.00;97317.47;4967091;28;20081;-46
2022/10/18 09:38:26;;;;;;;;;;;;;;;23.26;100.00;97311.63;4969002;28;20074;-45
2022/10/18 09:40:56;;;;;;;9.95;4.90;;;;;;;23.77;100.00;97310.28;4972804;28;19961;-44
2022/10/18 09:43:24;;;;;;;;;;;;;;;24.58;100.00;97308.09;4972950;28;20086;-47
2022/10/18 09:45:54;;;;;;;7.20;4.68;;;;;;;24.95;100.00;97299.44;4971201;28;19954;-44
2022/10/18 09:48:28;;;;;;;10.00;5.97;;;;;;;24.95;100.00;97305.69;4972556;28;20541;-49
2022/10/18 09:50:58;;;;;;;9.05;5.57;;;;;;;24.49;100.00;97308.53;4972316;28;20086;-47
2022/10/18 09:53:34;;;;;;;6.93;5.22;;;;;;;25.02;100.00;97309.19;4963793;28;20062;-44
2022/10/18 09:56:05;;;;;;;7.80;4.80;;;;;;;24.89;100.00;97303.00;4970434;28;20066;-50
2022/10/18 09:58:41;;;;;;;12.68;5.43;;;;;;;24.46;100.00;97304.41;4966914;28;20070;-47
2022/10/18 10:01:13;;;;;;;8.80;5.00;;;;;;;24.27;100.00;97303.41;4972516;28;20517;-44
2022/10/18 10:03:43;;;;;;;9.90;5.43;;;;;;;24.67;100.00;97310.56;4972290;28;20054;-45
2022/10/18 10:06:23;;;;;;;7.70;5.40;;;;;;;24.28;100.00;97299.66;4969730;28;20070;-44
2022/10/18 10:08:58;;;;;;;6.65;4.50;;;;;;;23.91;100.00;97306.53;4972359;28;20082;-44
2022/10/18 10:11:29;;;;;;;6.35;4.43;;;;;;;24.55;100.00;97311.22;4971908;28;20109;-49
2022/10/18 10:13:59;;;;;;;10.10;5.38;;;;;;;24.13;100.00;97302.59;4972619;28;20089;-44
2022/10/18 10:16:28;;;;;;;8.02;4.85;;;;;;;24.70;100.00;97296.66;4972175;28;20414;-44
2022/10/18 10:18:58;;;;;;;8.90;5.20;;;;;;;24.92;100.00;97287.22;4972222;28;20070;-43
2022/10/18 10:21:26;;;;;;;7.47;4.82;;;;;;;25.17;100.00;97286.50;4970186;28;20077;-44
2022/10/18 10:23:55;;;;;;;5.97;5.18;;;;;;;25.44;100.00;97281.75;4972946;28;20085;-45
2022/10/18 10:26:27;;;;;;;8.23;4.85;;;;;;;25.40;100.00;97280.53;4971832;28;20069;-50
2022/10/18 10:28:55;;;;;;;7.03;4.75;;;;;;;24.36;100.00;97277.88;4968492;28;20082;-45
2022/10/18 10:31:27;;;;;;;8.48;4.63;;;;;;;25.25;100.00;97276.25;4963294;28;20082;-48
2022/10/18 10:34:01;;;;;;;7.43;5.00;;;;;;;25.46;100.00;97266.13;4971213;28;20078;-46
2022/10/18 10:36:30;;;;;;;8.07;4.80;;;;;;;25.74;100.00;97263.84;4967614;28;20070;-44
2022/10/18 10:39:04;;;;;;;6.78;4.90;;;;;;;25.51;100.00;97260.91;4971738;28;20078;-46
2022/10/18 10:41:32;;;;;;;6.60;4.13;;;;;;;25.34;100.00;97266.84;4971247;28;20078;-46
2022/10/18 10:44:02;;;;;;;9.45;4.18;;;;;;;25.29;100.00;97266.69;4971506;28;20498;-49
2022/10/18 10:46:35;;;;;;;11.93;4.65;;;;;;;25.51;100.00;97269.84;4971832;28;20171;-46
2022/10/18 10:49:05;;;;;;;7.72;4.07;;;;;;;26.04;100.00;97263.97;4971547;28;20082;-45
2022/10/18 10:51:54;;;;;;;9.05;4.53;;;;;;;25.53;100.00;97270.47;4971502;28;20089;-44
2022/10/18 10:54:44;;;;;;;6.17;4.63;;;;;;;26.03;100.00;97269.63;4971505;28;20094;-44
2022/10/18 10:57:22;;;;;;;5.80;4.00;;;;;;;25.96;100.00;97269.69;4971307;28;20074;-48
2022/10/18 10:59:52;;;;;;;6.65;4.40;;;;;;;25.55;100.00;97259.41;4971008;28;20125;-48
2022/10/18 11:02:22;;;;;;;8.25;4.82;;;;;;;26.22;100.00;97252.38;4971357;28;20589;-45
2022/10/18 11:04:53;;;;;;;10.25;4.65;;;;;;;25.54;100.00;97261.28;4971209;28;20101;-46
2022/10/18 11:07:24;;;;;;;6.95;3.75;;;;;;;25.63;100.00;97250.22;4970383;28;20082;-44
2022/10/18 11:09:58;;;;;;;5.00;3.90;;;;;;;26.28;100.00;97247.94;4971304;28;20090;-45
2022/10/18 11:12:33;;;;;;;9.95;3.88;;;;;;;26.10;100.00;97237.94;4965729;28;20368;-47
2022/10/18 11:15:21;;;;;;;7.90;3.67;;;;;;;25.65;100.00;97245.41;4970979;28;20089;-44
2022/10/18 11:18:01;;;;;;;7.55;3.88;;;;;;;26.02;100.00;97241.78;4968756;28;20081;-47
2022/10/18 11:20:32;;;;;;;6.13;3.63;;;;;;;26.12;100.00;97230.44;4970318;28;20079;-45
2022/10/18 11:23:02;;;;;;;6.00;3.88;;;;;;;26.82;95.70;97230.03;4968678;28;20082;-47
2022/10/18 11:25:47;;;;;;;5.80;3.90;;;;;;;26.63;92.04;97225.69;4962047;28;20082;-48
2022/10/18 11:28:21;;;;;;;5.63;3.53;;;;;;;27.04;100.00;97233.03;4969057;28;20074;-48
2022/10/18 11:31:00;;;;;;;6.70;3.53;;;;;;;26.60;96.84;97240.53;4967729;28;20158;-48
2022/10/18 11:33:32;;;;;;;5.80;3.38;;;;;;;26.94;87.76;97232.75;4970774;28;20480;-44
2022/10/18 11:36:26;;;;;;;5.13;3.40;;;;;;;27.63;87.45;97225.91;4970235;28;20086;-46
2022/10/18 11:38:56;;;;;;;7.72;3.55;;;;;;;27.31;87.35;97225.38;4970525;28;20086;-47
2022/10/18 11:41:29;;;;;;;;;;;;;;;27.44;93.66;97229.75;4970817;28;20082;-49
2022/10/18 11:43:59;;;;;;;6.63;3.80;;;;;;;26.92;84.89;97227.59;4971099;28;19979;-49